sensor_id;sensor_type;location;lat;lon;timestamp;P1;durP1;ratioP1;P2;durP2;ratioP2
71637;SDS011;59485;43.542;-5.676;2024-01-27T00:00:07;67.63;;;31.87;;
71637;SDS011;59485;43.542;-5.676;2024-01-27T00:02:34;64.20;;;31.20;;
71637;SDS011;59485;43.542;-5.676;2024-01-27T00:05:05;73.10;;;29.45;;
71637;SDS011;59485;43.542;-5.676;2024-01-27T00:07:31;65.40;;;30.20;;
71637;SDS011;59485;43.542;-5.676;2024-01-27T00:09:57;62.40;;;27.23;;
71637;SDS011;59485;43.542;-5.676;2024-01-27T00:12:24;70.18;;;25.90;;
71637;SDS011;59485;43.542;-5.676;2024-01-27T00:14:59;61.27;;;25.70;;
71637;SDS011;59485;43.542;-5.676;2024-01-27T00:20:00;82.60;;;25.45;;
71637;SDS011;59485;43.542;-5.676;2024-01-27T00:22:26;61.42;;;24.95;;
71637;SDS011;59485;43.542;-5.676;2024-01-27T00:24:54;65.97;;;25.37;;
71637;SDS011;59485;43.542;-5.676;2024-01-27T00:27:26;70.60;;;26.75;;
71637;SDS011;59485;43.542;-5.676;2024-01-27T00:29:55;77.10;;;28.65;;
71637;SDS011;59485;43.542;-5.676;2024-01-27T00:32:20;82.72;;;30.40;;
71637;SDS011;59485;43.542;-5.676;2024-01-27T00:34:46;92.07;;;36.50;;
71637;SDS011;59485;43.542;-5.676;2024-01-27T00:37:11;99.17;;;39.20;;
71637;SDS011;59485;43.542;-5.676;2024-01-27T00:39:37;108.80;;;39.60;;
71637;SDS011;59485;43.542;-5.676;2024-01-27T00:42:06;101.30;;;44.73;;
71637;SDS011;59485;43.542;-5.676;2024-01-27T00:44:31;124.00;;;52.13;;
71637;SDS011;59485;43.542;-5.676;2024-01-27T00:46:57;117.53;;;47.03;;
71637;SDS011;59485;43.542;-5.676;2024-01-27T00:49:32;109.50;;;41.80;;
71637;SDS011;59485;43.542;-5.676;2024-01-27T00:51:57;74.18;;;31.40;;
71637;SDS011;59485;43.542;-5.676;2024-01-27T00:54:23;71.70;;;32.63;;
71637;SDS011;59485;43.542;-5.676;2024-01-27T00:56:50;71.38;;;29.35;;
71637;SDS011;59485;43.542;-5.676;2024-01-27T00:59:16;72.33;;;28.33;;
71637;SDS011;59485;43.542;-5.676;2024-01-27T01:01:41;64.13;;;28.58;;
71637;SDS011;59485;43.542;-5.676;2024-01-27T01:04:07;60.30;;;25.70;;
71637;SDS011;59485;43.542;-5.676;2024-01-27T01:06:33;65.40;;;36.70;;
71637;SDS011;59485;43.542;-5.676;2024-01-27T01:08:58;57.60;;;25.53;;
71637;SDS011;59485;43.542;-5.676;2024-01-27T01:11:24;62.40;;;26.63;;
71637;SDS011;59485;43.542;-5.676;2024-01-27T01:13:49;61.38;;;26.58;;
71637;SDS011;59485;43.542;-5.676;2024-01-27T01:16:15;65.23;;;25.47;;
71637;SDS011;59485;43.542;-5.676;2024-01-27T01:18:43;50.80;;;24.38;;
71637;SDS011;59485;43.542;-5.676;2024-01-27T01:21:09;60.60;;;26.20;;
71637;SDS011;59485;43.542;-5.676;2024-01-27T01:23:35;53.97;;;24.93;;
71637;SDS011;59485;43.542;-5.676;2024-01-27T01:26:00;64.13;;;27.80;;
71637;SDS011;59485;43.542;-5.676;2024-01-27T01:28:26;52.85;;;25.45;;
71637;SDS011;59485;43.542;-5.676;2024-01-27T01:30:51;59.23;;;25.83;;
71637;SDS011;59485;43.542;-5.676;2024-01-27T01:33:23;50.75;;;24.30;;
71637;SDS011;59485;43.542;-5.676;2024-01-27T01:35:49;45.97;;;21.47;;
71637;SDS011;59485;43.542;-5.676;2024-01-27T01:38:21;43.00;;;21.08;;
71637;SDS011;59485;43.542;-5.676;2024-01-27T01:40:46;46.40;;;24.13;;
71637;SDS011;59485;43.542;-5.676;2024-01-27T01:43:24;63.63;;;30.87;;
71637;SDS011;59485;43.542;-5.676;2024-01-27T01:45:50;68.47;;;35.65;;
71637;SDS011;59485;43.542;-5.676;2024-01-27T01:48:18;73.68;;;38.95;;
71637;SDS011;59485;43.542;-5.676;2024-01-27T01:50:51;68.93;;;34.37;;
71637;SDS011;59485;43.542;-5.676;2024-01-27T01:53:26;62.33;;;30.13;;
71637;SDS011;59485;43.542;-5.676;2024-01-27T01:56:04;67.53;;;31.65;;
71637;SDS011;59485;43.542;-5.676;2024-01-27T01:58:30;58.58;;;27.40;;
71637;SDS011;59485;43.542;-5.676;2024-01-27T02:01:02;64.95;;;29.33;;
71637;SDS011;59485;43.542;-5.676;2024-01-27T02:03:28;63.40;;;28.33;;
71637;SDS011;59485;43.542;-5.676;2024-01-27T02:06:00;73.28;;;35.92;;
71637;SDS011;59485;43.542;-5.676;2024-01-27T02:08:25;57.50;;;29.45;;
71637;SDS011;59485;43.542;-5.676;2024-01-27T02:10:51;60.87;;;28.23;;
71637;SDS011;59485;43.542;-5.676;2024-01-27T02:13:26;60.22;;;28.52;;
71637;SDS011;59485;43.542;-5.676;2024-01-27T02:15:52;62.10;;;33.57;;
71637;SDS011;59485;43.542;-5.676;2024-01-27T02:18:18;62.42;;;35.83;;
71637;SDS011;59485;43.542;-5.676;2024-01-27T02:20:44;64.03;;;35.27;;
71637;SDS011;59485;43.542;-5.676;2024-01-27T02:23:09;58.28;;;30.52;;
71637;SDS011;59485;43.542;-5.676;2024-01-27T02:25:38;56.90;;;28.43;;
71637;SDS011;59485;43.542;-5.676;2024-01-27T02:28:03;48.10;;;24.05;;
71637;SDS011;59485;43.542;-5.676;2024-01-27T02:30:32;49.28;;;24.92;;
71637;SDS011;59485;43.542;-5.676;2024-01-27T02:32:58;42.65;;;24.77;;
71637;SDS011;59485;43.542;-5.676;2024-01-27T02:35:24;47.40;;;25.67;;
71637;SDS011;59485;43.542;-5.676;2024-01-27T02:37:59;43.55;;;25.83;;
71637;SDS011;59485;43.542;-5.676;2024-01-27T02:40:25;47.55;;;24.48;;
71637;SDS011;59485;43.542;-5.676;2024-01-27T02:42:50;50.53;;;24.03;;
71637;SDS011;59485;43.542;-5.676;2024-01-27T02:45:16;43.70;;;24.77;;
71637;SDS011;59485;43.542;-5.676;2024-01-27T02:47:41;46.87;;;23.97;;
71637;SDS011;59485;43.542;-5.676;2024-01-27T02:50:07;42.83;;;21.75;;
71637;SDS011;59485;43.542;-5.676;2024-01-27T02:52:33;45.50;;;24.02;;
71637;SDS011;59485;43.542;-5.676;2024-01-27T02:54:59;47.77;;;23.30;;
71637;SDS011;59485;43.542;-5.676;2024-01-27T02:57:25;47.33;;;22.67;;
71637;SDS011;59485;43.542;-5.676;2024-01-27T02:59:51;46.90;;;22.37;;
71637;SDS011;59485;43.542;-5.676;2024-01-27T03:02:17;45.63;;;22.73;;
71637;SDS011;59485;43.542;-5.676;2024-01-27T03:07:08;46.45;;;23.45;;
71637;SDS011;59485;43.542;-5.676;2024-01-27T03:09:33;44.97;;;23.40;;
71637;SDS011;59485;43.542;-5.676;2024-01-27T03:11:59;47.13;;;24.67;;
71637;SDS011;59485;43.542;-5.676;2024-01-27T03:14:24;51.78;;;23.77;;
71637;SDS011;59485;43.542;-5.676;2024-01-27T03:19:24;46.65;;;22.42;;
71637;SDS011;59485;43.542;-5.676;2024-01-27T03:21:56;52.13;;;22.85;;
71637;SDS011;59485;43.542;-5.676;2024-01-27T03:24:21;51.97;;;23.45;;
71637;SDS011;59485;43.542;-5.676;2024-01-27T03:26:56;47.10;;;22.60;;
71637;SDS011;59485;43.542;-5.676;2024-01-27T03:29:22;48.50;;;23.02;;
71637;SDS011;59485;43.542;-5.676;2024-01-27T03:31:47;39.20;;;20.77;;
71637;SDS011;59485;43.542;-5.676;2024-01-27T03:34:14;42.13;;;22.58;;
71637;SDS011;59485;43.542;-5.676;2024-01-27T03:36:40;39.03;;;19.90;;
71637;SDS011;59485;43.542;-5.676;2024-01-27T03:39:05;45.00;;;20.50;;
71637;SDS011;59485;43.542;-5.676;2024-01-27T03:41:32;38.25;;;18.60;;
71637;SDS011;59485;43.542;-5.676;2024-01-27T03:43:58;46.27;;;19.90;;
71637;SDS011;59485;43.542;-5.676;2024-01-27T03:46:23;41.75;;;20.02;;
71637;SDS011;59485;43.542;-5.676;2024-01-27T03:48:49;38.20;;;18.10;;
71637;SDS011;59485;43.542;-5.676;2024-01-27T03:51:14;33.63;;;16.93;;
71637;SDS011;59485;43.542;-5.676;2024-01-27T03:53:40;50.00;;;19.15;;
71637;SDS011;59485;43.542;-5.676;2024-01-27T03:56:06;37.43;;;19.47;;
71637;SDS011;59485;43.542;-5.676;2024-01-27T03:58:31;38.15;;;18.30;;
71637;SDS011;59485;43.542;-5.676;2024-01-27T04:00:57;41.87;;;19.40;;
71637;SDS011;59485;43.542;-5.676;2024-01-27T04:03:24;39.22;;;19.20;;
71637;SDS011;59485;43.542;-5.676;2024-01-27T04:05:49;36.38;;;19.98;;
71637;SDS011;59485;43.542;-5.676;2024-01-27T04:08:15;38.93;;;20.50;;
71637;SDS011;59485;43.542;-5.676;2024-01-27T04:10:41;41.33;;;20.83;;
71637;SDS011;59485;43.542;-5.676;2024-01-27T04:13:06;39.67;;;20.00;;
71637;SDS011;59485;43.542;-5.676;2024-01-27T04:15:35;34.00;;;18.20;;
71637;SDS011;59485;43.542;-5.676;2024-01-27T04:18:03;28.27;;;16.13;;
71637;SDS011;59485;43.542;-5.676;2024-01-27T04:20:47;25.23;;;16.02;;
71637;SDS011;59485;43.542;-5.676;2024-01-27T04:23:15;26.45;;;16.40;;
71637;SDS011;59485;43.542;-5.676;2024-01-27T04:25:41;25.00;;;15.77;;
71637;SDS011;59485;43.542;-5.676;2024-01-27T04:28:08;27.17;;;16.08;;
71637;SDS011;59485;43.542;-5.676;2024-01-27T04:30:35;29.77;;;16.67;;
71637;SDS011;59485;43.542;-5.676;2024-01-27T04:33:01;27.33;;;16.37;;
71637;SDS011;59485;43.542;-5.676;2024-01-27T04:35:27;28.08;;;16.42;;
71637;SDS011;59485;43.542;-5.676;2024-01-27T04:37:53;28.08;;;16.65;;
71637;SDS011;59485;43.542;-5.676;2024-01-27T04:40:19;28.33;;;16.70;;
71637;SDS011;59485;43.542;-5.676;2024-01-27T04:42:44;26.67;;;16.42;;
71637;SDS011;59485;43.542;-5.676;2024-01-27T04:45:14;28.43;;;16.30;;
71637;SDS011;59485;43.542;-5.676;2024-01-27T04:47:40;23.73;;;15.40;;
71637;SDS011;59485;43.542;-5.676;2024-01-27T04:50:05;26.80;;;16.17;;
71637;SDS011;59485;43.542;-5.676;2024-01-27T04:52:43;25.48;;;16.08;;
71637;SDS011;59485;43.542;-5.676;2024-01-27T04:55:08;31.30;;;17.08;;
71637;SDS011;59485;43.542;-5.676;2024-01-27T04:57:34;32.10;;;17.60;;
71637;SDS011;59485;43.542;-5.676;2024-01-27T05:00:00;35.38;;;18.13;;
71637;SDS011;59485;43.542;-5.676;2024-01-27T05:02:25;39.03;;;19.03;;
71637;SDS011;59485;43.542;-5.676;2024-01-27T05:04:51;38.83;;;18.67;;
71637;SDS011;59485;43.542;-5.676;2024-01-27T05:07:17;37.23;;;19.20;;
71637;SDS011;59485;43.542;-5.676;2024-01-27T05:09:43;41.15;;;18.77;;
71637;SDS011;59485;43.542;-5.676;2024-01-27T05:12:08;38.40;;;19.67;;
71637;SDS011;59485;43.542;-5.676;2024-01-27T05:14:34;37.28;;;18.17;;
71637;SDS011;59485;43.542;-5.676;2024-01-27T05:16:59;41.27;;;19.30;;
71637;SDS011;59485;43.542;-5.676;2024-01-27T05:19:28;40.77;;;19.03;;
71637;SDS011;59485;43.542;-5.676;2024-01-27T05:21:54;47.10;;;22.80;;
71637;SDS011;59485;43.542;-5.676;2024-01-27T05:24:29;48.15;;;21.17;;
71637;SDS011;59485;43.542;-5.676;2024-01-27T05:26:54;47.05;;;22.67;;
71637;SDS011;59485;43.542;-5.676;2024-01-27T05:29:20;56.30;;;22.90;;
71637;SDS011;59485;43.542;-5.676;2024-01-27T05:31:46;54.17;;;21.93;;
71637;SDS011;59485;43.542;-5.676;2024-01-27T05:34:14;45.60;;;22.70;;
71637;SDS011;59485;43.542;-5.676;2024-01-27T05:36:40;47.50;;;22.90;;
71637;SDS011;59485;43.542;-5.676;2024-01-27T05:39:06;41.73;;;22.13;;
71637;SDS011;59485;43.542;-5.676;2024-01-27T05:41:31;45.45;;;22.33;;
71637;SDS011;59485;43.542;-5.676;2024-01-27T05:43:57;43.63;;;23.53;;
71637;SDS011;59485;43.542;-5.676;2024-01-27T05:46:24;48.25;;;21.00;;
71637;SDS011;59485;43.542;-5.676;2024-01-27T05:48:50;53.38;;;22.08;;
71637;SDS011;59485;43.542;-5.676;2024-01-27T05:51:19;47.60;;;22.23;;
71637;SDS011;59485;43.542;-5.676;2024-01-27T05:53:45;43.00;;;22.23;;
71637;SDS011;59485;43.542;-5.676;2024-01-27T05:56:20;41.95;;;21.73;;
71637;SDS011;59485;43.542;-5.676;2024-01-27T05:58:45;44.67;;;21.88;;
71637;SDS011;59485;43.542;-5.676;2024-01-27T06:03:42;40.57;;;21.27;;
71637;SDS011;59485;43.542;-5.676;2024-01-27T06:06:32;43.25;;;20.98;;
71637;SDS011;59485;43.542;-5.676;2024-01-27T06:08:57;46.17;;;23.15;;
71637;SDS011;59485;43.542;-5.676;2024-01-27T06:11:32;41.90;;;23.73;;
71637;SDS011;59485;43.542;-5.676;2024-01-27T06:13:57;49.17;;;22.08;;
71637;SDS011;59485;43.542;-5.676;2024-01-27T06:16:23;49.87;;;22.33;;
71637;SDS011;59485;43.542;-5.676;2024-01-27T06:18:49;51.00;;;21.30;;
71637;SDS011;59485;43.542;-5.676;2024-01-27T06:21:14;54.17;;;23.27;;
71637;SDS011;59485;43.542;-5.676;2024-01-27T06:23:40;45.28;;;21.80;;
71637;SDS011;59485;43.542;-5.676;2024-01-27T06:26:06;46.47;;;21.90;;
71637;SDS011;59485;43.542;-5.676;2024-01-27T06:28:32;48.13;;;24.42;;
71637;SDS011;59485;43.542;-5.676;2024-01-27T06:30:59;48.83;;;21.35;;
71637;SDS011;59485;43.542;-5.676;2024-01-27T06:33:25;47.85;;;21.17;;
71637;SDS011;59485;43.542;-5.676;2024-01-27T06:35:51;44.90;;;21.30;;
71637;SDS011;59485;43.542;-5.676;2024-01-27T06:38:17;44.40;;;21.30;;
71637;SDS011;59485;43.542;-5.676;2024-01-27T06:40:42;49.67;;;21.17;;
71637;SDS011;59485;43.542;-5.676;2024-01-27T06:43:09;50.97;;;23.10;;
71637;SDS011;59485;43.542;-5.676;2024-01-27T06:45:40;57.13;;;20.92;;
71637;SDS011;59485;43.542;-5.676;2024-01-27T06:50:45;39.55;;;20.50;;
71637;SDS011;59485;43.542;-5.676;2024-01-27T06:53:11;49.20;;;19.08;;
71637;SDS011;59485;43.542;-5.676;2024-01-27T06:55:36;58.60;;;19.77;;
71637;SDS011;59485;43.542;-5.676;2024-01-27T06:58:02;39.33;;;18.92;;
71637;SDS011;59485;43.542;-5.676;2024-01-27T07:00:27;38.87;;;18.20;;
71637;SDS011;59485;43.542;-5.676;2024-01-27T07:02:59;40.87;;;19.43;;
71637;SDS011;59485;43.542;-5.676;2024-01-27T07:08:07;36.72;;;17.52;;
71637;SDS011;59485;43.542;-5.676;2024-01-27T07:10:34;43.00;;;20.40;;
71637;SDS011;59485;43.542;-5.676;2024-01-27T07:13:00;35.08;;;15.88;;
71637;SDS011;59485;43.542;-5.676;2024-01-27T07:15:28;35.97;;;15.90;;
71637;SDS011;59485;43.542;-5.676;2024-01-27T07:17:54;34.67;;;15.55;;
71637;SDS011;59485;43.542;-5.676;2024-01-27T07:20:19;32.93;;;15.63;;
71637;SDS011;59485;43.542;-5.676;2024-01-27T07:22:49;33.20;;;15.98;;
71637;SDS011;59485;43.542;-5.676;2024-01-27T07:25:15;35.10;;;16.88;;
71637;SDS011;59485;43.542;-5.676;2024-01-27T07:27:41;30.90;;;15.83;;
71637;SDS011;59485;43.542;-5.676;2024-01-27T07:30:06;35.83;;;15.63;;
71637;SDS011;59485;43.542;-5.676;2024-01-27T07:32:34;39.83;;;16.40;;
71637;SDS011;59485;43.542;-5.676;2024-01-27T07:35:00;32.03;;;15.50;;
71637;SDS011;59485;43.542;-5.676;2024-01-27T07:37:25;32.77;;;16.23;;
71637;SDS011;59485;43.542;-5.676;2024-01-27T07:39:51;28.23;;;16.02;;
71637;SDS011;59485;43.542;-5.676;2024-01-27T07:42:16;28.33;;;16.17;;
71637;SDS011;59485;43.542;-5.676;2024-01-27T07:44:42;29.80;;;17.80;;
71637;SDS011;59485;43.542;-5.676;2024-01-27T07:47:07;38.13;;;21.75;;
71637;SDS011;59485;43.542;-5.676;2024-01-27T07:49:36;43.47;;;21.10;;
71637;SDS011;59485;43.542;-5.676;2024-01-27T07:52:01;41.25;;;19.73;;
71637;SDS011;59485;43.542;-5.676;2024-01-27T07:54:27;37.57;;;20.37;;
71637;SDS011;59485;43.542;-5.676;2024-01-27T07:56:53;39.50;;;19.40;;
71637;SDS011;59485;43.542;-5.676;2024-01-27T07:59:18;42.40;;;20.20;;
71637;SDS011;59485;43.542;-5.676;2024-01-27T08:01:44;44.35;;;20.90;;
71637;SDS011;59485;43.542;-5.676;2024-01-27T08:04:10;35.80;;;18.20;;
71637;SDS011;59485;43.542;-5.676;2024-01-27T08:06:45;43.08;;;20.23;;
71637;SDS011;59485;43.542;-5.676;2024-01-27T08:09:14;38.40;;;19.13;;
71637;SDS011;59485;43.542;-5.676;2024-01-27T08:11:40;36.35;;;19.52;;
71637;SDS011;59485;43.542;-5.676;2024-01-27T08:14:06;30.77;;;19.27;;
71637;SDS011;59485;43.542;-5.676;2024-01-27T08:16:31;27.48;;;15.32;;
71637;SDS011;59485;43.542;-5.676;2024-01-27T08:18:57;27.10;;;16.10;;
71637;SDS011;59485;43.542;-5.676;2024-01-27T08:21:22;25.70;;;17.00;;
71637;SDS011;59485;43.542;-5.676;2024-01-27T08:23:48;24.70;;;14.90;;
71637;SDS011;59485;43.542;-5.676;2024-01-27T08:26:14;20.83;;;14.17;;
71637;SDS011;59485;43.542;-5.676;2024-01-27T08:28:40;18.17;;;13.00;;
71637;SDS011;59485;43.542;-5.676;2024-01-27T08:31:05;23.10;;;17.42;;
71637;SDS011;59485;43.542;-5.676;2024-01-27T08:33:31;29.07;;;14.70;;
71637;SDS011;59485;43.542;-5.676;2024-01-27T08:35:57;33.17;;;15.60;;
71637;SDS011;59485;43.542;-5.676;2024-01-27T08:38:22;35.10;;;16.00;;
71637;SDS011;59485;43.542;-5.676;2024-01-27T08:40:48;43.65;;;17.50;;
71637;SDS011;59485;43.542;-5.676;2024-01-27T08:43:17;50.83;;;16.17;;
71637;SDS011;59485;43.542;-5.676;2024-01-27T08:45:51;41.95;;;16.25;;
71637;SDS011;59485;43.542;-5.676;2024-01-27T08:48:17;42.27;;;20.87;;
71637;SDS011;59485;43.542;-5.676;2024-01-27T08:50:42;46.40;;;19.63;;
71637;SDS011;59485;43.542;-5.676;2024-01-27T08:53:08;42.70;;;18.57;;
71637;SDS011;59485;43.542;-5.676;2024-01-27T08:55:33;42.87;;;17.47;;
71637;SDS011;59485;43.542;-5.676;2024-01-27T08:57:59;50.90;;;19.50;;
71637;SDS011;59485;43.542;-5.676;2024-01-27T09:00:24;53.87;;;22.07;;
71637;SDS011;59485;43.542;-5.676;2024-01-27T09:02:50;62.97;;;21.75;;
71637;SDS011;59485;43.542;-5.676;2024-01-27T09:05:16;60.50;;;23.77;;
71637;SDS011;59485;43.542;-5.676;2024-01-27T09:07:42;57.33;;;20.90;;
71637;SDS011;59485;43.542;-5.676;2024-01-27T09:10:07;49.93;;;22.13;;
71637;SDS011;59485;43.542;-5.676;2024-01-27T09:12:34;52.15;;;19.90;;
71637;SDS011;59485;43.542;-5.676;2024-01-27T09:15:00;63.80;;;22.20;;
71637;SDS011;59485;43.542;-5.676;2024-01-27T09:17:25;64.05;;;26.65;;
71637;SDS011;59485;43.542;-5.676;2024-01-27T09:19:51;59.33;;;23.07;;
71637;SDS011;59485;43.542;-5.676;2024-01-27T09:22:17;52.05;;;21.85;;
71637;SDS011;59485;43.542;-5.676;2024-01-27T09:24:42;52.70;;;20.87;;
71637;SDS011;59485;43.542;-5.676;2024-01-27T09:27:08;51.67;;;20.20;;
71637;SDS011;59485;43.542;-5.676;2024-01-27T09:29:33;73.00;;;25.77;;
71637;SDS011;59485;43.542;-5.676;2024-01-27T09:31:59;65.27;;;25.30;;
71637;SDS011;59485;43.542;-5.676;2024-01-27T09:34:24;77.43;;;26.73;;
71637;SDS011;59485;43.542;-5.676;2024-01-27T09:36:50;77.60;;;28.80;;
71637;SDS011;59485;43.542;-5.676;2024-01-27T09:39:16;73.30;;;27.30;;
71637;SDS011;59485;43.542;-5.676;2024-01-27T09:41:41;71.60;;;26.85;;
71637;SDS011;59485;43.542;-5.676;2024-01-27T09:44:07;64.30;;;27.00;;
71637;SDS011;59485;43.542;-5.676;2024-01-27T09:46:37;65.47;;;25.50;;
71637;SDS011;59485;43.542;-5.676;2024-01-27T09:49:03;62.03;;;24.13;;
71637;SDS011;59485;43.542;-5.676;2024-01-27T09:51:29;61.95;;;25.00;;
71637;SDS011;59485;43.542;-5.676;2024-01-27T09:53:55;59.20;;;23.42;;
71637;SDS011;59485;43.542;-5.676;2024-01-27T09:56:22;52.07;;;22.73;;
71637;SDS011;59485;43.542;-5.676;2024-01-27T09:58:47;43.85;;;20.38;;
71637;SDS011;59485;43.542;-5.676;2024-01-27T10:01:18;43.00;;;18.80;;
71637;SDS011;59485;43.542;-5.676;2024-01-27T10:03:45;45.47;;;20.13;;
71637;SDS011;59485;43.542;-5.676;2024-01-27T10:06:11;41.10;;;19.80;;
71637;SDS011;59485;43.542;-5.676;2024-01-27T10:08:37;50.17;;;20.73;;
71637;SDS011;59485;43.542;-5.676;2024-01-27T10:11:07;45.22;;;20.98;;
71637;SDS011;59485;43.542;-5.676;2024-01-27T10:13:34;41.10;;;21.20;;
71637;SDS011;59485;43.542;-5.676;2024-01-27T10:16:01;41.38;;;20.02;;
71637;SDS011;59485;43.542;-5.676;2024-01-27T10:18:27;38.45;;;21.25;;
71637;SDS011;59485;43.542;-5.676;2024-01-27T10:20:53;41.58;;;21.02;;
71637;SDS011;59485;43.542;-5.676;2024-01-27T10:23:19;37.80;;;20.73;;
71637;SDS011;59485;43.542;-5.676;2024-01-27T10:25:45;36.63;;;22.02;;
71637;SDS011;59485;43.542;-5.676;2024-01-27T10:28:10;39.67;;;21.70;;
71637;SDS011;59485;43.542;-5.676;2024-01-27T10:30:36;42.27;;;21.77;;
71637;SDS011;59485;43.542;-5.676;2024-01-27T10:33:02;39.30;;;21.40;;
71637;SDS011;59485;43.542;-5.676;2024-01-27T10:35:28;35.30;;;20.77;;
71637;SDS011;59485;43.542;-5.676;2024-01-27T10:37:54;32.58;;;23.75;;
71637;SDS011;59485;43.542;-5.676;2024-01-27T10:40:21;31.85;;;17.55;;
71637;SDS011;59485;43.542;-5.676;2024-01-27T10:43:01;41.13;;;29.43;;
71637;SDS011;59485;43.542;-5.676;2024-01-27T10:45:29;32.05;;;23.63;;
71637;SDS011;59485;43.542;-5.676;2024-01-27T10:48:04;33.47;;;26.95;;
71637;SDS011;59485;43.542;-5.676;2024-01-27T10:50:33;30.08;;;18.05;;
71637;SDS011;59485;43.542;-5.676;2024-01-27T10:53:25;31.95;;;24.20;;
71637;SDS011;59485;43.542;-5.676;2024-01-27T10:55:53;31.43;;;18.43;;
71637;SDS011;59485;43.542;-5.676;2024-01-27T10:58:20;28.05;;;17.15;;
71637;SDS011;59485;43.542;-5.676;2024-01-27T11:00:51;33.13;;;20.33;;
71637;SDS011;59485;43.542;-5.676;2024-01-27T11:03:18;34.92;;;28.05;;
71637;SDS011;59485;43.542;-5.676;2024-01-27T11:05:45;31.27;;;20.40;;
71637;SDS011;59485;43.542;-5.676;2024-01-27T11:08:12;31.23;;;19.77;;
71637;SDS011;59485;43.542;-5.676;2024-01-27T11:10:39;36.92;;;19.15;;
71637;SDS011;59485;43.542;-5.676;2024-01-27T11:13:05;35.45;;;19.38;;
71637;SDS011;59485;43.542;-5.676;2024-01-27T11:15:33;33.17;;;17.95;;
71637;SDS011;59485;43.542;-5.676;2024-01-27T11:17:58;33.23;;;19.83;;
71637;SDS011;59485;43.542;-5.676;2024-01-27T11:20:32;39.10;;;26.38;;
71637;SDS011;59485;43.542;-5.676;2024-01-27T11:23:10;33.50;;;22.95;;
71637;SDS011;59485;43.542;-5.676;2024-01-27T11:25:37;35.63;;;18.88;;
71637;SDS011;59485;43.542;-5.676;2024-01-27T11:30:39;46.08;;;21.33;;
71637;SDS011;59485;43.542;-5.676;2024-01-27T11:33:05;39.50;;;20.23;;
71637;SDS011;59485;43.542;-5.676;2024-01-27T11:35:30;43.00;;;20.00;;
71637;SDS011;59485;43.542;-5.676;2024-01-27T11:37:56;45.47;;;20.65;;
71637;SDS011;59485;43.542;-5.676;2024-01-27T11:40:22;42.73;;;21.93;;
71637;SDS011;59485;43.542;-5.676;2024-01-27T11:42:54;43.47;;;21.30;;
71637;SDS011;59485;43.542;-5.676;2024-01-27T11:45:27;41.30;;;20.17;;
71637;SDS011;59485;43.542;-5.676;2024-01-27T11:47:54;42.90;;;20.00;;
71637;SDS011;59485;43.542;-5.676;2024-01-27T11:50:20;38.87;;;20.70;;
71637;SDS011;59485;43.542;-5.676;2024-01-27T11:52:49;46.13;;;25.63;;
71637;SDS011;59485;43.542;-5.676;2024-01-27T11:55:14;42.15;;;21.20;;
71637;SDS011;59485;43.542;-5.676;2024-01-27T11:57:40;39.20;;;20.37;;
71637;SDS011;59485;43.542;-5.676;2024-01-27T12:00:09;38.58;;;19.95;;
71637;SDS011;59485;43.542;-5.676;2024-01-27T12:02:36;41.17;;;20.50;;
71637;SDS011;59485;43.542;-5.676;2024-01-27T12:05:05;44.97;;;29.87;;
71637;SDS011;59485;43.542;-5.676;2024-01-27T12:07:31;39.00;;;20.42;;
71637;SDS011;59485;43.542;-5.676;2024-01-27T12:09:56;41.50;;;19.65;;
71637;SDS011;59485;43.542;-5.676;2024-01-27T12:12:22;39.10;;;19.10;;
71637;SDS011;59485;43.542;-5.676;2024-01-27T12:14:48;40.70;;;19.87;;
71637;SDS011;59485;43.542;-5.676;2024-01-27T12:17:15;44.80;;;18.92;;
71637;SDS011;59485;43.542;-5.676;2024-01-27T12:19:51;39.03;;;20.60;;
71637;SDS011;59485;43.542;-5.676;2024-01-27T12:22:28;40.13;;;19.63;;
71637;SDS011;59485;43.542;-5.676;2024-01-27T12:24:54;39.28;;;21.00;;
71637;SDS011;59485;43.542;-5.676;2024-01-27T12:27:21;41.40;;;19.07;;
71637;SDS011;59485;43.542;-5.676;2024-01-27T12:29:48;38.80;;;18.30;;
71637;SDS011;59485;43.542;-5.676;2024-01-27T12:32:17;41.17;;;25.23;;
71637;SDS011;59485;43.542;-5.676;2024-01-27T12:34:45;40.78;;;18.90;;
71637;SDS011;59485;43.542;-5.676;2024-01-27T12:37:12;36.70;;;22.10;;
71637;SDS011;59485;43.542;-5.676;2024-01-27T12:39:40;42.87;;;18.77;;
71637;SDS011;59485;43.542;-5.676;2024-01-27T12:42:08;48.95;;;19.92;;
71637;SDS011;59485;43.542;-5.676;2024-01-27T12:44:34;34.97;;;18.83;;
71637;SDS011;59485;43.542;-5.676;2024-01-27T12:46:59;46.15;;;20.58;;
71637;SDS011;59485;43.542;-5.676;2024-01-27T12:49:26;42.90;;;20.30;;
71637;SDS011;59485;43.542;-5.676;2024-01-27T12:51:51;36.90;;;19.50;;
71637;SDS011;59485;43.542;-5.676;2024-01-27T12:54:17;45.40;;;25.00;;
71637;SDS011;59485;43.542;-5.676;2024-01-27T12:56:43;47.17;;;22.60;;
71637;SDS011;59485;43.542;-5.676;2024-01-27T12:59:08;52.65;;;33.92;;
71637;SDS011;59485;43.542;-5.676;2024-01-27T13:01:34;43.80;;;20.37;;
71637;SDS011;59485;43.542;-5.676;2024-01-27T13:03:59;40.77;;;20.13;;
71637;SDS011;59485;43.542;-5.676;2024-01-27T13:06:25;50.23;;;21.40;;
71637;SDS011;59485;43.542;-5.676;2024-01-27T13:08:51;46.30;;;21.63;;
71637;SDS011;59485;43.542;-5.676;2024-01-27T13:11:17;46.73;;;24.73;;
71637;SDS011;59485;43.542;-5.676;2024-01-27T13:13:44;42.22;;;20.58;;
71637;SDS011;59485;43.542;-5.676;2024-01-27T13:18:35;38.15;;;20.13;;
71637;SDS011;59485;43.542;-5.676;2024-01-27T13:21:01;43.15;;;21.25;;
71637;SDS011;59485;43.542;-5.676;2024-01-27T13:23:29;44.50;;;22.63;;
71637;SDS011;59485;43.542;-5.676;2024-01-27T13:25:55;45.30;;;22.07;;
71637;SDS011;59485;43.542;-5.676;2024-01-27T13:28:20;46.20;;;23.48;;
71637;SDS011;59485;43.542;-5.676;2024-01-27T13:30:46;42.87;;;29.13;;
71637;SDS011;59485;43.542;-5.676;2024-01-27T13:33:11;51.10;;;25.40;;
71637;SDS011;59485;43.542;-5.676;2024-01-27T13:35:37;48.73;;;22.83;;
71637;SDS011;59485;43.542;-5.676;2024-01-27T13:38:05;46.60;;;22.42;;
71637;SDS011;59485;43.542;-5.676;2024-01-27T13:40:31;51.00;;;25.30;;
71637;SDS011;59485;43.542;-5.676;2024-01-27T13:42:56;46.87;;;22.90;;
71637;SDS011;59485;43.542;-5.676;2024-01-27T13:45:23;45.95;;;25.02;;
71637;SDS011;59485;43.542;-5.676;2024-01-27T13:47:48;49.07;;;21.57;;
71637;SDS011;59485;43.542;-5.676;2024-01-27T13:50:14;51.65;;;23.35;;
71637;SDS011;59485;43.542;-5.676;2024-01-27T13:52:39;48.53;;;23.93;;
71637;SDS011;59485;43.542;-5.676;2024-01-27T13:55:08;52.20;;;24.77;;
71637;SDS011;59485;43.542;-5.676;2024-01-27T13:57:34;52.17;;;28.65;;
71637;SDS011;59485;43.542;-5.676;2024-01-27T13:59:59;50.50;;;24.37;;
71637;SDS011;59485;43.542;-5.676;2024-01-27T14:02:25;46.25;;;22.70;;
71637;SDS011;59485;43.542;-5.676;2024-01-27T14:04:51;50.67;;;25.03;;
71637;SDS011;59485;43.542;-5.676;2024-01-27T14:07:16;51.78;;;24.73;;
71637;SDS011;59485;43.542;-5.676;2024-01-27T14:09:43;52.87;;;29.03;;
71637;SDS011;59485;43.542;-5.676;2024-01-27T14:12:09;49.75;;;24.83;;
71637;SDS011;59485;43.542;-5.676;2024-01-27T14:14:35;47.30;;;23.27;;
71637;SDS011;59485;43.542;-5.676;2024-01-27T14:17:04;44.05;;;23.10;;
71637;SDS011;59485;43.542;-5.676;2024-01-27T14:19:29;43.55;;;23.58;;
71637;SDS011;59485;43.542;-5.676;2024-01-27T14:21:55;38.53;;;22.43;;
71637;SDS011;59485;43.542;-5.676;2024-01-27T14:24:21;41.45;;;22.65;;
71637;SDS011;59485;43.542;-5.676;2024-01-27T14:26:46;53.60;;;25.07;;